Ewaterfrd, Pennsylvania
Current Conditions -  °F | °C
As of 6:53 PM on Sunday 23 Nov 2014 (Local Time) from KAOO Reporting Station
Clear Clear  
Wind Chill: 45°   Ceiling: Unl
Heat Index: 49°   Visibility: 10mi
Dew Point: 28°   Wind: 10mph
Humidity: 44%   Direction: 110°ESE
Pressure: 29.93"   Gusts: NA
Location:  40.3617°N, 77.6745°W
Report Text: KAOO 232353Z AUTO 11009KT 10SM CLR 09/M02 A2993 RMK AO2 SLP140 T00941022 10156 20089 56016
Loading
Personal Weather Stations






























Interactive Weather Map New forecast layout! Learn more

10-Day Weather Forecast

Advertisements
Track Severe Weather on mobile